sensor_id;sensor_type;location;lat;lon;timestamp;P1;durP1;ratioP1;P2;durP2;ratioP2
20101;SDS011;10210;52.284;9.892;2023-04-22T00:02:12;18.70;;;10.37;;
20101;SDS011;10210;52.284;9.892;2023-04-22T00:04:40;17.70;;;9.90;;
20101;SDS011;10210;52.284;9.892;2023-04-22T00:07:10;21.40;;;10.63;;
20101;SDS011;10210;52.284;9.892;2023-04-22T00:09:40;16.67;;;10.03;;
20101;SDS011;10210;52.284;9.892;2023-04-22T00:12:07;18.43;;;10.37;;
20101;SDS011;10210;52.284;9.892;2023-04-22T00:14:33;18.90;;;10.63;;
20101;SDS011;10210;52.284;9.892;2023-04-22T00:16:59;19.77;;;9.77;;
20101;SDS011;10210;52.284;9.892;2023-04-22T00:19:25;17.63;;;10.77;;
20101;SDS011;10210;52.284;9.892;2023-04-22T00:21:52;16.87;;;10.20;;
20101;SDS011;10210;52.284;9.892;2023-04-22T00:24:17;17.33;;;9.97;;
20101;SDS011;10210;52.284;9.892;2023-04-22T00:26:43;18.80;;;10.77;;
20101;SDS011;10210;52.284;9.892;2023-04-22T00:29:09;17.83;;;9.93;;
20101;SDS011;10210;52.284;9.892;2023-04-22T00:31:34;16.63;;;9.53;;
20101;SDS011;10210;52.284;9.892;2023-04-22T00:34:00;17.57;;;10.40;;
20101;SDS011;10210;52.284;9.892;2023-04-22T00:36:25;18.47;;;10.53;;
20101;SDS011;10210;52.284;9.892;2023-04-22T00:38:51;18.60;;;10.27;;
20101;SDS011;10210;52.284;9.892;2023-04-22T00:41:18;20.53;;;10.07;;
20101;SDS011;10210;52.284;9.892;2023-04-22T00:43:44;16.50;;;9.77;;
20101;SDS011;10210;52.284;9.892;2023-04-22T00:46:11;18.03;;;10.60;;
20101;SDS011;10210;52.284;9.892;2023-04-22T00:48:39;17.20;;;10.23;;
20101;SDS011;10210;52.284;9.892;2023-04-22T00:51:05;16.67;;;9.77;;
20101;SDS011;10210;52.284;9.892;2023-04-22T00:53:31;19.23;;;10.00;;
20101;SDS011;10210;52.284;9.892;2023-04-22T00:55:57;19.37;;;10.47;;
20101;SDS011;10210;52.284;9.892;2023-04-22T00:58:24;18.77;;;11.13;;
20101;SDS011;10210;52.284;9.892;2023-04-22T01:00:53;17.90;;;10.63;;
20101;SDS011;10210;52.284;9.892;2023-04-22T01:03:19;19.33;;;10.70;;
20101;SDS011;10210;52.284;9.892;2023-04-22T01:05:49;19.30;;;10.60;;
20101;SDS011;10210;52.284;9.892;2023-04-22T01:08:15;18.13;;;10.33;;
20101;SDS011;10210;52.284;9.892;2023-04-22T01:10:41;20.13;;;10.40;;
20101;SDS011;10210;52.284;9.892;2023-04-22T01:13:07;17.23;;;10.83;;
20101;SDS011;10210;52.284;9.892;2023-04-22T01:15:33;18.40;;;10.90;;
20101;SDS011;10210;52.284;9.892;2023-04-22T01:17:59;18.00;;;10.80;;
20101;SDS011;10210;52.284;9.892;2023-04-22T01:20:26;18.63;;;10.43;;
20101;SDS011;10210;52.284;9.892;2023-04-22T01:22:56;17.53;;;10.33;;
20101;SDS011;10210;52.284;9.892;2023-04-22T01:25:24;18.40;;;10.57;;
20101;SDS011;10210;52.284;9.892;2023-04-22T01:27:50;17.03;;;10.03;;
20101;SDS011;10210;52.284;9.892;2023-04-22T01:30:18;19.43;;;10.67;;
20101;SDS011;10210;52.284;9.892;2023-04-22T01:32:44;19.77;;;11.37;;
20101;SDS011;10210;52.284;9.892;2023-04-22T01:35:10;18.20;;;10.80;;
20101;SDS011;10210;52.284;9.892;2023-04-22T01:37:37;19.53;;;10.40;;
20101;SDS011;10210;52.284;9.892;2023-04-22T01:40:03;20.63;;;10.77;;
20101;SDS011;10210;52.284;9.892;2023-04-22T01:42:31;17.43;;;10.93;;
20101;SDS011;10210;52.284;9.892;2023-04-22T01:44:57;22.17;;;11.20;;
20101;SDS011;10210;52.284;9.892;2023-04-22T01:47:22;19.90;;;10.20;;
20101;SDS011;10210;52.284;9.892;2023-04-22T01:49:48;18.43;;;10.60;;
20101;SDS011;10210;52.284;9.892;2023-04-22T01:52:16;19.07;;;10.77;;
20101;SDS011;10210;52.284;9.892;2023-04-22T01:54:41;19.37;;;10.83;;
20101;SDS011;10210;52.284;9.892;2023-04-22T01:57:08;20.63;;;12.00;;
20101;SDS011;10210;52.284;9.892;2023-04-22T01:59:38;17.50;;;10.83;;
20101;SDS011;10210;52.284;9.892;2023-04-22T02:02:04;19.90;;;12.00;;
20101;SDS011;10210;52.284;9.892;2023-04-22T02:04:30;18.63;;;11.40;;
20101;SDS011;10210;52.284;9.892;2023-04-22T02:06:56;19.27;;;11.70;;
20101;SDS011;10210;52.284;9.892;2023-04-22T02:09:22;19.03;;;11.70;;
20101;SDS011;10210;52.284;9.892;2023-04-22T02:11:48;20.13;;;11.57;;
20101;SDS011;10210;52.284;9.892;2023-04-22T02:14:13;18.80;;;11.43;;
20101;SDS011;10210;52.284;9.892;2023-04-22T02:16:39;18.77;;;11.60;;
20101;SDS011;10210;52.284;9.892;2023-04-22T02:19:06;22.00;;;12.13;;
20101;SDS011;10210;52.284;9.892;2023-04-22T02:21:32;18.83;;;11.60;;
20101;SDS011;10210;52.284;9.892;2023-04-22T02:23:58;20.07;;;12.40;;
20101;SDS011;10210;52.284;9.892;2023-04-22T02:26:24;19.43;;;12.17;;
20101;SDS011;10210;52.284;9.892;2023-04-22T02:28:50;19.93;;;11.80;;
20101;SDS011;10210;52.284;9.892;2023-04-22T02:31:16;20.03;;;11.70;;
20101;SDS011;10210;52.284;9.892;2023-04-22T02:33:42;22.17;;;11.60;;
20101;SDS011;10210;52.284;9.892;2023-04-22T02:36:08;18.67;;;11.93;;
20101;SDS011;10210;52.284;9.892;2023-04-22T02:38:34;19.57;;;12.40;;
20101;SDS011;10210;52.284;9.892;2023-04-22T02:40:59;19.03;;;11.17;;
20101;SDS011;10210;52.284;9.892;2023-04-22T02:43:25;18.67;;;11.63;;
20101;SDS011;10210;52.284;9.892;2023-04-22T02:45:51;21.17;;;12.30;;
20101;SDS011;10210;52.284;9.892;2023-04-22T02:48:16;18.90;;;12.50;;
20101;SDS011;10210;52.284;9.892;2023-04-22T02:50:42;19.87;;;12.27;;
20101;SDS011;10210;52.284;9.892;2023-04-22T02:53:07;22.90;;;13.00;;
20101;SDS011;10210;52.284;9.892;2023-04-22T02:55:33;18.17;;;11.27;;
20101;SDS011;10210;52.284;9.892;2023-04-22T02:57:59;21.33;;;11.03;;
20101;SDS011;10210;52.284;9.892;2023-04-22T03:00:25;20.03;;;11.80;;
20101;SDS011;10210;52.284;9.892;2023-04-22T03:02:50;20.50;;;11.50;;
20101;SDS011;10210;52.284;9.892;2023-04-22T03:05:16;20.60;;;11.67;;
20101;SDS011;10210;52.284;9.892;2023-04-22T03:07:42;18.50;;;11.50;;
20101;SDS011;10210;52.284;9.892;2023-04-22T03:10:08;19.17;;;11.77;;
20101;SDS011;10210;52.284;9.892;2023-04-22T03:12:34;18.60;;;11.87;;
20101;SDS011;10210;52.284;9.892;2023-04-22T03:15:00;18.97;;;11.77;;
20101;SDS011;10210;52.284;9.892;2023-04-22T03:17:26;18.47;;;10.63;;
20101;SDS011;10210;52.284;9.892;2023-04-22T03:19:51;18.77;;;11.27;;
20101;SDS011;10210;52.284;9.892;2023-04-22T03:22:17;18.57;;;11.03;;
20101;SDS011;10210;52.284;9.892;2023-04-22T03:24:43;18.27;;;11.47;;
20101;SDS011;10210;52.284;9.892;2023-04-22T03:27:09;18.80;;;10.43;;
20101;SDS011;10210;52.284;9.892;2023-04-22T03:29:35;19.13;;;10.53;;
20101;SDS011;10210;52.284;9.892;2023-04-22T03:32:00;17.27;;;10.33;;
20101;SDS011;10210;52.284;9.892;2023-04-22T03:34:26;17.37;;;10.70;;
20101;SDS011;10210;52.284;9.892;2023-04-22T03:36:51;18.53;;;10.37;;
20101;SDS011;10210;52.284;9.892;2023-04-22T03:39:17;17.07;;;10.23;;
20101;SDS011;10210;52.284;9.892;2023-04-22T03:41:43;16.53;;;9.83;;
20101;SDS011;10210;52.284;9.892;2023-04-22T03:44:08;18.17;;;11.03;;
20101;SDS011;10210;52.284;9.892;2023-04-22T03:46:34;18.13;;;11.07;;
20101;SDS011;10210;52.284;9.892;2023-04-22T03:49:00;20.17;;;10.70;;
20101;SDS011;10210;52.284;9.892;2023-04-22T03:51:25;17.23;;;10.00;;
20101;SDS011;10210;52.284;9.892;2023-04-22T03:53:51;16.30;;;9.47;;
20101;SDS011;10210;52.284;9.892;2023-04-22T03:56:17;17.50;;;10.83;;
20101;SDS011;10210;52.284;9.892;2023-04-22T03:58:42;18.23;;;10.90;;
20101;SDS011;10210;52.284;9.892;2023-04-22T04:01:08;18.90;;;11.17;;
20101;SDS011;10210;52.284;9.892;2023-04-22T04:03:34;20.87;;;11.33;;
20101;SDS011;10210;52.284;9.892;2023-04-22T04:06:00;18.63;;;11.13;;
20101;SDS011;10210;52.284;9.892;2023-04-22T04:08:25;18.13;;;10.60;;
20101;SDS011;10210;52.284;9.892;2023-04-22T04:10:51;18.50;;;10.50;;
20101;SDS011;10210;52.284;9.892;2023-04-22T04:13:17;18.47;;;10.77;;
20101;SDS011;10210;52.284;9.892;2023-04-22T04:15:42;21.00;;;11.07;;
20101;SDS011;10210;52.284;9.892;2023-04-22T04:18:08;18.70;;;11.53;;
20101;SDS011;10210;52.284;9.892;2023-04-22T04:20:35;22.97;;;11.97;;
20101;SDS011;10210;52.284;9.892;2023-04-22T04:23:01;19.43;;;11.30;;
20101;SDS011;10210;52.284;9.892;2023-04-22T04:25:27;17.70;;;10.97;;
20101;SDS011;10210;52.284;9.892;2023-04-22T04:28:01;17.87;;;10.93;;
20101;SDS011;10210;52.284;9.892;2023-04-22T04:30:33;20.03;;;11.20;;
20101;SDS011;10210;52.284;9.892;2023-04-22T04:33:00;17.73;;;10.97;;
20101;SDS011;10210;52.284;9.892;2023-04-22T04:35:30;18.30;;;10.60;;
20101;SDS011;10210;52.284;9.892;2023-04-22T04:38:02;21.27;;;10.43;;
20101;SDS011;10210;52.284;9.892;2023-04-22T04:40:31;17.93;;;9.87;;
20101;SDS011;10210;52.284;9.892;2023-04-22T04:42:58;16.60;;;9.77;;
20101;SDS011;10210;52.284;9.892;2023-04-22T04:45:26;17.90;;;10.30;;
20101;SDS011;10210;52.284;9.892;2023-04-22T04:47:53;18.53;;;10.00;;
20101;SDS011;10210;52.284;9.892;2023-04-22T04:50:19;16.57;;;8.90;;
20101;SDS011;10210;52.284;9.892;2023-04-22T04:52:46;18.13;;;10.80;;
20101;SDS011;10210;52.284;9.892;2023-04-22T04:55:15;16.27;;;8.97;;
20101;SDS011;10210;52.284;9.892;2023-04-22T04:57:44;16.40;;;9.10;;
20101;SDS011;10210;52.284;9.892;2023-04-22T05:00:11;15.80;;;9.17;;
20101;SDS011;10210;52.284;9.892;2023-04-22T05:02:38;16.43;;;9.13;;
20101;SDS011;10210;52.284;9.892;2023-04-22T05:05:04;16.83;;;9.40;;
20101;SDS011;10210;52.284;9.892;2023-04-22T05:07:31;17.70;;;10.10;;
20101;SDS011;10210;52.284;9.892;2023-04-22T05:09:57;19.20;;;9.27;;
20101;SDS011;10210;52.284;9.892;2023-04-22T05:12:24;17.10;;;9.70;;
20101;SDS011;10210;52.284;9.892;2023-04-22T05:14:50;16.97;;;9.90;;
20101;SDS011;10210;52.284;9.892;2023-04-22T05:17:15;18.10;;;9.70;;
20101;SDS011;10210;52.284;9.892;2023-04-22T05:19:41;17.10;;;9.97;;
20101;SDS011;10210;52.284;9.892;2023-04-22T05:22:06;16.60;;;10.00;;
20101;SDS011;10210;52.284;9.892;2023-04-22T05:24:32;18.43;;;9.80;;
20101;SDS011;10210;52.284;9.892;2023-04-22T05:26:58;16.70;;;10.03;;
20101;SDS011;10210;52.284;9.892;2023-04-22T05:29:24;16.17;;;9.30;;
20101;SDS011;10210;52.284;9.892;2023-04-22T05:31:51;17.83;;;10.23;;
20101;SDS011;10210;52.284;9.892;2023-04-22T05:34:17;17.43;;;10.07;;
20101;SDS011;10210;52.284;9.892;2023-04-22T05:36:42;17.00;;;9.73;;
20101;SDS011;10210;52.284;9.892;2023-04-22T05:39:08;15.57;;;9.17;;
20101;SDS011;10210;52.284;9.892;2023-04-22T05:41:34;18.23;;;9.63;;
20101;SDS011;10210;52.284;9.892;2023-04-22T05:43:59;17.50;;;9.93;;
20101;SDS011;10210;52.284;9.892;2023-04-22T05:46:25;17.40;;;9.87;;
20101;SDS011;10210;52.284;9.892;2023-04-22T05:48:51;16.20;;;9.33;;
20101;SDS011;10210;52.284;9.892;2023-04-22T05:51:18;16.47;;;9.70;;
20101;SDS011;10210;52.284;9.892;2023-04-22T05:53:44;15.63;;;9.17;;
20101;SDS011;10210;52.284;9.892;2023-04-22T05:56:10;17.53;;;9.83;;
20101;SDS011;10210;52.284;9.892;2023-04-22T05:58:36;16.13;;;8.90;;
20101;SDS011;10210;52.284;9.892;2023-04-22T06:01:02;15.90;;;9.03;;
20101;SDS011;10210;52.284;9.892;2023-04-22T06:03:28;18.10;;;9.47;;
20101;SDS011;10210;52.284;9.892;2023-04-22T06:05:54;16.30;;;9.40;;
20101;SDS011;10210;52.284;9.892;2023-04-22T06:08:19;17.60;;;9.50;;
20101;SDS011;10210;52.284;9.892;2023-04-22T06:10:45;17.00;;;9.50;;
20101;SDS011;10210;52.284;9.892;2023-04-22T06:13:11;19.77;;;9.90;;
20101;SDS011;10210;52.284;9.892;2023-04-22T06:15:36;16.53;;;9.57;;
20101;SDS011;10210;52.284;9.892;2023-04-22T06:18:02;17.43;;;9.40;;
20101;SDS011;10210;52.284;9.892;2023-04-22T06:20:28;18.13;;;9.37;;
20101;SDS011;10210;52.284;9.892;2023-04-22T06:22:56;16.90;;;9.40;;
20101;SDS011;10210;52.284;9.892;2023-04-22T06:25:23;15.40;;;8.43;;
20101;SDS011;10210;52.284;9.892;2023-04-22T06:27:48;17.40;;;9.30;;
20101;SDS011;10210;52.284;9.892;2023-04-22T06:30:14;15.93;;;9.17;;
20101;SDS011;10210;52.284;9.892;2023-04-22T06:32:40;15.87;;;9.33;;
20101;SDS011;10210;52.284;9.892;2023-04-22T06:35:06;16.13;;;8.53;;
20101;SDS011;10210;52.284;9.892;2023-04-22T06:37:35;16.73;;;8.53;;
20101;SDS011;10210;52.284;9.892;2023-04-22T06:40:03;15.23;;;8.77;;
20101;SDS011;10210;52.284;9.892;2023-04-22T06:42:30;16.10;;;9.07;;
20101;SDS011;10210;52.284;9.892;2023-04-22T06:44:56;16.20;;;8.33;;
20101;SDS011;10210;52.284;9.892;2023-04-22T06:47:21;14.73;;;8.10;;
20101;SDS011;10210;52.284;9.892;2023-04-22T06:49:47;16.00;;;8.80;;
20101;SDS011;10210;52.284;9.892;2023-04-22T06:52:14;15.67;;;8.60;;
20101;SDS011;10210;52.284;9.892;2023-04-22T06:54:40;16.53;;;8.17;;
20101;SDS011;10210;52.284;9.892;2023-04-22T06:57:05;14.70;;;7.43;;
20101;SDS011;10210;52.284;9.892;2023-04-22T06:59:32;17.63;;;7.83;;
20101;SDS011;10210;52.284;9.892;2023-04-22T07:01:57;16.47;;;8.10;;
20101;SDS011;10210;52.284;9.892;2023-04-22T07:04:23;13.53;;;7.00;;
20101;SDS011;10210;52.284;9.892;2023-04-22T07:06:54;14.53;;;6.60;;
20101;SDS011;10210;52.284;9.892;2023-04-22T07:09:19;15.17;;;7.27;;
20101;SDS011;10210;52.284;9.892;2023-04-22T07:11:45;14.93;;;7.10;;
20101;SDS011;10210;52.284;9.892;2023-04-22T07:14:11;13.30;;;6.23;;
20101;SDS011;10210;52.284;9.892;2023-04-22T07:16:37;15.20;;;6.73;;
20101;SDS011;10210;52.284;9.892;2023-04-22T07:19:03;15.20;;;7.00;;
20101;SDS011;10210;52.284;9.892;2023-04-22T07:21:32;14.13;;;6.60;;
20101;SDS011;10210;52.284;9.892;2023-04-22T07:23:58;12.87;;;5.90;;
20101;SDS011;10210;52.284;9.892;2023-04-22T07:26:24;13.50;;;5.10;;
20101;SDS011;10210;52.284;9.892;2023-04-22T07:28:49;11.93;;;4.70;;
20101;SDS011;10210;52.284;9.892;2023-04-22T07:31:15;11.87;;;4.17;;
20101;SDS011;10210;52.284;9.892;2023-04-22T07:33:41;12.00;;;4.20;;
20101;SDS011;10210;52.284;9.892;2023-04-22T07:36:16;10.57;;;4.47;;
20101;SDS011;10210;52.284;9.892;2023-04-22T07:38:41;12.50;;;4.73;;
20101;SDS011;10210;52.284;9.892;2023-04-22T07:41:07;12.57;;;4.30;;
20101;SDS011;10210;52.284;9.892;2023-04-22T07:43:32;10.00;;;4.00;;
20101;SDS011;10210;52.284;9.892;2023-04-22T07:45:58;10.27;;;4.00;;
20101;SDS011;10210;52.284;9.892;2023-04-22T07:48:24;11.43;;;3.90;;
20101;SDS011;10210;52.284;9.892;2023-04-22T07:50:50;10.43;;;4.10;;
20101;SDS011;10210;52.284;9.892;2023-04-22T07:53:16;9.20;;;3.80;;
20101;SDS011;10210;52.284;9.892;2023-04-22T07:55:41;12.03;;;3.80;;
20101;SDS011;10210;52.284;9.892;2023-04-22T07:58:07;12.10;;;3.70;;
20101;SDS011;10210;52.284;9.892;2023-04-22T08:00:33;11.77;;;4.10;;
20101;SDS011;10210;52.284;9.892;2023-04-22T08:02:59;12.63;;;4.10;;
20101;SDS011;10210;52.284;9.892;2023-04-22T08:05:25;9.80;;;3.60;;
20101;SDS011;10210;52.284;9.892;2023-04-22T08:07:51;8.63;;;3.53;;
20101;SDS011;10210;52.284;9.892;2023-04-22T08:10:17;12.63;;;4.10;;
20101;SDS011;10210;52.284;9.892;2023-04-22T08:12:43;10.23;;;3.70;;
20101;SDS011;10210;52.284;9.892;2023-04-22T08:15:10;11.00;;;3.87;;
20101;SDS011;10210;52.284;9.892;2023-04-22T08:17:36;13.33;;;4.00;;
20101;SDS011;10210;52.284;9.892;2023-04-22T08:20:02;9.37;;;3.70;;
20101;SDS011;10210;52.284;9.892;2023-04-22T08:22:39;8.50;;;3.20;;
20101;SDS011;10210;52.284;9.892;2023-04-22T08:25:06;10.17;;;3.70;;
20101;SDS011;10210;52.284;9.892;2023-04-22T08:27:33;9.73;;;3.50;;
20101;SDS011;10210;52.284;9.892;2023-04-22T08:29:59;11.40;;;3.60;;
20101;SDS011;10210;52.284;9.892;2023-04-22T08:32:26;8.67;;;3.50;;
20101;SDS011;10210;52.284;9.892;2023-04-22T08:34:52;9.27;;;3.50;;
20101;SDS011;10210;52.284;9.892;2023-04-22T08:37:17;9.43;;;3.90;;
20101;SDS011;10210;52.284;9.892;2023-04-22T08:39:43;8.13;;;3.17;;
20101;SDS011;10210;52.284;9.892;2023-04-22T08:42:09;9.47;;;3.67;;
20101;SDS011;10210;52.284;9.892;2023-04-22T08:44:36;10.87;;;3.60;;
20101;SDS011;10210;52.284;9.892;2023-04-22T08:47:04;9.67;;;3.40;;
20101;SDS011;10210;52.284;9.892;2023-04-22T08:49:37;8.00;;;3.10;;
20101;SDS011;10210;52.284;9.892;2023-04-22T08:52:05;9.27;;;3.38;;
20101;SDS011;10210;52.284;9.892;2023-04-22T08:54:33;10.65;;;3.92;;
20101;SDS011;10210;52.284;9.892;2023-04-22T08:57:01;27.88;;;7.00;;
20101;SDS011;10210;52.284;9.892;2023-04-22T08:59:42;24.58;;;8.95;;
20101;SDS011;10210;52.284;9.892;2023-04-22T09:02:15;17.35;;;6.68;;
20101;SDS011;10210;52.284;9.892;2023-04-22T09:04:48;9.63;;;3.50;;
20101;SDS011;10210;52.284;9.892;2023-04-22T09:10:10;7.50;;;2.78;;
20101;SDS011;10210;52.284;9.892;2023-04-22T09:12:37;11.13;;;3.08;;
20101;SDS011;10210;52.284;9.892;2023-04-22T09:15:06;12.23;;;3.00;;
20101;SDS011;10210;52.284;9.892;2023-04-22T09:17:43;10.50;;;3.33;;
20101;SDS011;10210;52.284;9.892;2023-04-22T09:20:08;7.57;;;2.95;;
20101;SDS011;10210;52.284;9.892;2023-04-22T09:22:37;135.05;;;21.42;;
20101;SDS011;10210;52.284;9.892;2023-04-22T09:25:13;13.30;;;4.28;;
20101;SDS011;10210;52.284;9.892;2023-04-22T09:27:41;15.38;;;4.32;;
20101;SDS011;10210;52.284;9.892;2023-04-22T09:30:08;12.35;;;4.00;;
20101;SDS011;10210;52.284;9.892;2023-04-22T09:32:34;9.38;;;3.28;;
20101;SDS011;10210;52.284;9.892;2023-04-22T09:35:00;11.65;;;3.60;;
20101;SDS011;10210;52.284;9.892;2023-04-22T09:37:26;13.00;;;3.20;;
20101;SDS011;10210;52.284;9.892;2023-04-22T09:39:52;8.52;;;3.00;;
20101;SDS011;10210;52.284;9.892;2023-04-22T09:42:30;14.00;;;4.00;;
20101;SDS011;10210;52.284;9.892;2023-04-22T09:44:56;10.30;;;3.45;;
20101;SDS011;10210;52.284;9.892;2023-04-22T09:47:23;7.87;;;3.03;;
20101;SDS011;10210;52.284;9.892;2023-04-22T09:49:49;8.13;;;3.10;;
20101;SDS011;10210;52.284;9.892;2023-04-22T09:52:21;7.70;;;2.80;;
20101;SDS011;10210;52.284;9.892;2023-04-22T09:54:49;7.37;;;3.00;;
20101;SDS011;10210;52.284;9.892;2023-04-22T09:57:19;7.83;;;2.90;;
20101;SDS011;10210;52.284;9.892;2023-04-22T09:59:47;9.23;;;2.83;;
20101;SDS011;10210;52.284;9.892;2023-04-22T10:02:15;6.37;;;2.80;;
20101;SDS011;10210;52.284;9.892;2023-04-22T10:04:40;12.67;;;3.13;;
20101;SDS011;10210;52.284;9.892;2023-04-22T10:07:28;8.00;;;3.07;;
20101;SDS011;10210;52.284;9.892;2023-04-22T10:09:55;10.13;;;3.10;;
20101;SDS011;10210;52.284;9.892;2023-04-22T10:12:21;6.57;;;2.60;;
20101;SDS011;10210;52.284;9.892;2023-04-22T10:14:47;10.57;;;3.13;;
20101;SDS011;10210;52.284;9.892;2023-04-22T10:17:23;7.40;;;2.70;;
20101;SDS011;10210;52.284;9.892;2023-04-22T10:19:50;10.20;;;3.20;;
20101;SDS011;10210;52.284;9.892;2023-04-22T10:22:16;7.20;;;3.00;;
20101;SDS011;10210;52.284;9.892;2023-04-22T10:24:42;8.80;;;2.87;;
20101;SDS011;10210;52.284;9.892;2023-04-22T10:27:11;8.77;;;2.93;;
20101;SDS011;10210;52.284;9.892;2023-04-22T10:29:40;7.00;;;2.57;;
20101;SDS011;10210;52.284;9.892;2023-04-22T10:34:49;6.97;;;2.70;;
20101;SDS011;10210;52.284;9.892;2023-04-22T10:37:35;9.30;;;4.20;;
20101;SDS011;10210;52.284;9.892;2023-04-22T10:40:05;9.97;;;3.63;;
20101;SDS011;10210;52.284;9.892;2023-04-22T10:42:40;12.53;;;3.70;;
20101;SDS011;10210;52.284;9.892;2023-04-22T10:45:11;8.13;;;3.43;;
20101;SDS011;10210;52.284;9.892;2023-04-22T10:47:38;6.60;;;3.00;;
20101;SDS011;10210;52.284;9.892;2023-04-22T10:52:55;9.33;;;3.57;;
20101;SDS011;10210;52.284;9.892;2023-04-22T10:55:24;8.73;;;3.43;;
20101;SDS011;10210;52.284;9.892;2023-04-22T10:58:21;10.27;;;3.70;;
20101;SDS011;10210;52.284;9.892;2023-04-22T11:00:50;9.30;;;3.60;;
20101;SDS011;10210;52.284;9.892;2023-04-22T11:03:24;8.57;;;3.80;;
20101;SDS011;10210;52.284;9.892;2023-04-22T11:06:27;10.87;;;4.17;;
20101;SDS011;10210;52.284;9.892;2023-04-22T11:08:49;11.30;;;4.00;;
20101;SDS011;10210;52.284;9.892;2023-04-22T11:11:32;8.97;;;3.80;;
20101;SDS011;10210;52.284;9.892;2023-04-22T11:13:58;9.57;;;4.00;;
20101;SDS011;10210;52.284;9.892;2023-04-22T11:16:24;12.07;;;4.23;;
20101;SDS011;10210;52.284;9.892;2023-04-22T11:18:50;9.93;;;3.93;;
20101;SDS011;10210;52.284;9.892;2023-04-22T11:21:17;9.67;;;3.43;;
20101;SDS011;10210;52.284;9.892;2023-04-22T11:23:50;7.93;;;3.10;;
20101;SDS011;10210;52.284;9.892;2023-04-22T11:26:17;6.67;;;2.83;;
20101;SDS011;10210;52.284;9.892;2023-04-22T11:28:46;8.57;;;2.87;;
20101;SDS011;10210;52.284;9.892;2023-04-22T11:31:12;6.83;;;2.60;;
20101;SDS011;10210;52.284;9.892;2023-04-22T11:33:39;5.57;;;2.57;;
20101;SDS011;10210;52.284;9.892;2023-04-22T11:36:11;7.67;;;2.70;;
20101;SDS011;10210;52.284;9.892;2023-04-22T11:38:37;6.00;;;2.60;;
20101;SDS011;10210;52.284;9.892;2023-04-22T11:41:03;9.13;;;3.37;;
20101;SDS011;10210;52.284;9.892;2023-04-22T11:43:29;7.20;;;2.83;;
20101;SDS011;10210;52.284;9.892;2023-04-22T11:45:55;7.40;;;2.80;;
20101;SDS011;10210;52.284;9.892;2023-04-22T11:48:22;6.83;;;2.73;;
20101;SDS011;10210;52.284;9.892;2023-04-22T11:51:05;7.33;;;2.50;;
20101;SDS011;10210;52.284;9.892;2023-04-22T11:53:35;6.30;;;2.87;;
20101;SDS011;10210;52.284;9.892;2023-04-22T11:56:02;9.87;;;3.30;;
20101;SDS011;10210;52.284;9.892;2023-04-22T11:58:28;8.10;;;3.00;;
20101;SDS011;10210;52.284;9.892;2023-04-22T12:00:54;7.80;;;2.90;;
20101;SDS011;10210;52.284;9.892;2023-04-22T12:03:24;7.07;;;3.00;;
20101;SDS011;10210;52.284;9.892;2023-04-22T12:05:53;8.57;;;3.27;;
20101;SDS011;10210;52.284;9.892;2023-04-22T12:08:29;10.57;;;3.10;;
20101;SDS011;10210;52.284;9.892;2023-04-22T12:11:08;8.70;;;3.30;;
20101;SDS011;10210;52.284;9.892;2023-04-22T12:16:02;10.20;;;3.20;;
20101;SDS011;10210;52.284;9.892;2023-04-22T12:18:37;7.77;;;3.07;;
20101;SDS011;10210;52.284;9.892;2023-04-22T12:23:41;10.87;;;2.90;;
20101;SDS011;10210;52.284;9.892;2023-04-22T12:26:08;9.73;;;3.10;;
20101;SDS011;10210;52.284;9.892;2023-04-22T12:28:36;8.57;;;2.97;;
20101;SDS011;10210;52.284;9.892;2023-04-22T12:31:02;12.23;;;2.93;;
20101;SDS011;10210;52.284;9.892;2023-04-22T12:33:28;7.87;;;3.10;;
20101;SDS011;10210;52.284;9.892;2023-04-22T12:35:54;10.00;;;3.30;;
20101;SDS011;10210;52.284;9.892;2023-04-22T12:38:20;8.13;;;2.80;;
20101;SDS011;10210;52.284;9.892;2023-04-22T12:40:46;8.20;;;2.97;;
20101;SDS011;10210;52.284;9.892;2023-04-22T12:43:12;6.90;;;2.73;;
20101;SDS011;10210;52.284;9.892;2023-04-22T12:45:37;11.03;;;3.23;;
20101;SDS011;10210;52.284;9.892;2023-04-22T12:48:03;11.30;;;2.80;;
20101;SDS011;10210;52.284;9.892;2023-04-22T12:50:29;6.87;;;2.97;;
20101;SDS011;10210;52.284;9.892;2023-04-22T12:52:55;8.90;;;3.20;;
20101;SDS011;10210;52.284;9.892;2023-04-22T12:55:20;7.50;;;3.10;;
20101;SDS011;10210;52.284;9.892;2023-04-22T12:57:47;12.07;;;3.00;;
20101;SDS011;10210;52.284;9.892;2023-04-22T13:00:14;7.07;;;2.80;;
20101;SDS011;10210;52.284;9.892;2023-04-22T13:02:41;6.17;;;2.60;;
20101;SDS011;10210;52.284;9.892;2023-04-22T13:05:09;6.23;;;2.37;;
20101;SDS011;10210;52.284;9.892;2023-04-22T13:07:35;7.70;;;2.23;;
20101;SDS011;10210;52.284;9.892;2023-04-22T13:10:02;6.23;;;2.13;;
20101;SDS011;10210;52.284;9.892;2023-04-22T13:12:30;5.37;;;2.10;;
20101;SDS011;10210;52.284;9.892;2023-04-22T13:14:56;7.13;;;2.53;;
20101;SDS011;10210;52.284;9.892;2023-04-22T13:17:21;7.10;;;2.60;;
20101;SDS011;10210;52.284;9.892;2023-04-22T13:19:47;6.00;;;2.50;;
20101;SDS011;10210;52.284;9.892;2023-04-22T13:22:15;4.90;;;2.10;;
20101;SDS011;10210;52.284;9.892;2023-04-22T13:24:42;4.97;;;1.87;;
20101;SDS011;10210;52.284;9.892;2023-04-22T13:27:09;6.53;;;1.90;;
20101;SDS011;10210;52.284;9.892;2023-04-22T13:29:35;4.90;;;2.10;;
20101;SDS011;10210;52.284;9.892;2023-04-22T13:32:02;3.93;;;1.97;;
20101;SDS011;10210;52.284;9.892;2023-04-22T13:34:28;6.07;;;2.00;;
20101;SDS011;10210;52.284;9.892;2023-04-22T13:36:55;4.13;;;1.73;;
20101;SDS011;10210;52.284;9.892;2023-04-22T13:39:21;6.87;;;2.40;;
20101;SDS011;10210;52.284;9.892;2023-04-22T13:41:48;5.47;;;2.00;;
20101;SDS011;10210;52.284;9.892;2023-04-22T13:44:14;5.73;;;2.13;;
20101;SDS011;10210;52.284;9.892;2023-04-22T13:46:40;6.33;;;2.10;;
20101;SDS011;10210;52.284;9.892;2023-04-22T13:49:07;4.83;;;2.30;;
20101;SDS011;10210;52.284;9.892;2023-04-22T13:51:33;6.80;;;2.30;;
20101;SDS011;10210;52.284;9.892;2023-04-22T13:54:01;6.43;;;2.20;;
20101;SDS011;10210;52.284;9.892;2023-04-22T13:56:28;6.70;;;2.40;;
20101;SDS011;10210;52.284;9.892;2023-04-22T13:58:55;4.80;;;2.30;;
20101;SDS011;10210;52.284;9.892;2023-04-22T14:01:21;4.83;;;2.30;;
20101;SDS011;10210;52.284;9.892;2023-04-22T14:03:50;4.43;;;2.10;;
20101;SDS011;10210;52.284;9.892;2023-04-22T14:06:17;7.83;;;2.43;;
20101;SDS011;10210;52.284;9.892;2023-04-22T14:08:43;4.93;;;2.10;;
20101;SDS011;10210;52.284;9.892;2023-04-22T14:11:12;4.37;;;1.93;;
20101;SDS011;10210;52.284;9.892;2023-04-22T14:13:38;5.63;;;2.10;;
20101;SDS011;10210;52.284;9.892;2023-04-22T14:16:04;7.67;;;2.17;;
20101;SDS011;10210;52.284;9.892;2023-04-22T14:18:35;7.23;;;2.30;;
20101;SDS011;10210;52.284;9.892;2023-04-22T14:21:03;6.17;;;2.00;;
20101;SDS011;10210;52.284;9.892;2023-04-22T14:23:32;3.87;;;2.00;;
20101;SDS011;10210;52.284;9.892;2023-04-22T14:25:58;7.20;;;2.00;;
20101;SDS011;10210;52.284;9.892;2023-04-22T14:28:26;4.80;;;2.00;;
20101;SDS011;10210;52.284;9.892;2023-04-22T14:30:53;5.77;;;2.10;;
20101;SDS011;10210;52.284;9.892;2023-04-22T14:33:19;5.27;;;1.90;;
20101;SDS011;10210;52.284;9.892;2023-04-22T14:35:48;5.73;;;1.90;;
20101;SDS011;10210;52.284;9.892;2023-04-22T14:38:13;6.90;;;2.20;;
20101;SDS011;10210;52.284;9.892;2023-04-22T14:40:39;4.63;;;2.13;;
20101;SDS011;10210;52.284;9.892;2023-04-22T14:43:05;5.03;;;2.00;;
20101;SDS011;10210;52.284;9.892;2023-04-22T14:45:34;5.20;;;2.10;;
20101;SDS011;10210;52.284;9.892;2023-04-22T14:48:00;4.00;;;2.00;;
20101;SDS011;10210;52.284;9.892;2023-04-22T14:50:26;6.73;;;2.00;;